createdAt,value
2018-07-06T00:01:18.932Z,101871.76
2018-07-06T00:04:26.282Z,101871.11
2018-07-06T00:07:32.270Z,101873.86
2018-07-06T00:10:38.130Z,101877.59
2018-07-06T00:13:45.877Z,101880.23
2018-07-06T00:16:53.629Z,101879.70
2018-07-06T00:20:00.643Z,101875.84
2018-07-06T00:23:08.169Z,101884.92
2018-07-06T00:26:16.029Z,101878.38
2018-07-06T00:29:23.309Z,101884.72
2018-07-06T00:32:31.126Z,101888.16
2018-07-06T00:35:37.786Z,101889.11
2018-07-06T00:38:45.554Z,101890.83
2018-07-06T00:41:53.324Z,101889.89
2018-07-06T00:45:01.387Z,101891.64
2018-07-06T00:48:08.906Z,101897.55
2018-07-06T00:51:15.751Z,101897.75
2018-07-06T00:54:21.846Z,101905.28
2018-07-06T00:57:29.428Z,101900.40
2018-07-06T01:00:36.527Z,101902.08
2018-07-06T01:03:43.105Z,101901.55
2018-07-06T01:06:49.038Z,101907.09
2018-07-06T01:09:54.901Z,101902.52
2018-07-06T01:13:06.397Z,101911.14
2018-07-06T01:16:12.178Z,101919.62
2018-07-06T01:19:18.232Z,101919.47
2018-07-06T01:22:24.394Z,101915.20
2018-07-06T01:25:32.038Z,101908.27
2018-07-06T01:28:38.354Z,101919.09
2018-07-06T01:31:44.006Z,101918.84
2018-07-06T01:34:51.758Z,101913.14
2018-07-06T01:37:58.870Z,101914.41
2018-07-06T01:41:06.703Z,101913.20
2018-07-06T01:44:14.058Z,101911.16
2018-07-06T01:47:21.680Z,101918.33
2018-07-06T01:50:27.638Z,101911.28
2018-07-06T01:53:35.954Z,101912.59
2018-07-06T01:56:41.135Z,101904.20
2018-07-06T01:59:48.000Z,101908.23
2018-07-06T02:02:55.346Z,101902.30
2018-07-06T02:06:02.869Z,101903.38
2018-07-06T02:09:08.832Z,101906.08
2018-07-06T02:12:16.874Z,101911.09
2018-07-06T02:15:23.120Z,101905.91
2018-07-06T02:18:30.808Z,101909.03
2018-07-06T02:21:36.989Z,101914.45
2018-07-06T02:24:45.200Z,101915.92
2018-07-06T02:27:51.454Z,101914.48
2018-07-06T02:30:59.129Z,101924.27
2018-07-06T02:34:05.199Z,101926.58
2018-07-06T02:37:11.390Z,101926.02
2018-07-06T02:40:17.876Z,101929.58
2018-07-06T02:43:24.210Z,101939.77
2018-07-06T02:46:32.080Z,101940.77
2018-07-06T02:49:40.029Z,101943.77
2018-07-06T02:52:47.145Z,101939.55
2018-07-06T02:55:54.218Z,101940.47
2018-07-06T02:59:00.419Z,101944.41
2018-07-06T03:02:06.638Z,101944.81
2018-07-06T03:05:14.450Z,101943.40
2018-07-06T03:08:20.566Z,101947.64
2018-07-06T03:11:26.957Z,101951.63
2018-07-06T03:14:33.538Z,101952.20
2018-07-06T03:17:39.510Z,101950.88
2018-07-06T03:20:47.109Z,101949.33
2018-07-06T03:23:53.241Z,101955.14
2018-07-06T03:27:00.725Z,101962.37
2018-07-06T03:30:08.109Z,101964.28
2018-07-06T03:33:15.794Z,101961.38
2018-07-06T03:36:23.311Z,101961.91
2018-07-06T03:39:30.769Z,101961.55
2018-07-06T03:42:38.174Z,101962.54
2018-07-06T03:45:44.166Z,101968.86
2018-07-06T03:48:51.677Z,101974.41
2018-07-06T03:51:59.580Z,101977.48
2018-07-06T03:55:05.689Z,101978.23
2018-07-06T03:58:13.278Z,101978.20
2018-07-06T04:01:19.241Z,101979.30
2018-07-06T04:04:25.165Z,101982.96
2018-07-06T04:07:32.770Z,101989.55
2018-07-06T04:10:40.891Z,101991.77
2018-07-06T04:13:46.849Z,101986.70
2018-07-06T04:16:54.056Z,101995.30
2018-07-06T04:19:59.881Z,101989.19
2018-07-06T04:23:07.475Z,101992.81
2018-07-06T04:26:14.319Z,101997.07
2018-07-06T04:29:20.931Z,101995.05
2018-07-06T04:32:28.642Z,101993.89
2018-07-06T04:35:34.197Z,101995.91
2018-07-06T04:38:41.895Z,102002.55
2018-07-06T04:41:48.450Z,101999.75
2018-07-06T04:44:55.745Z,102006.98
2018-07-06T04:48:03.553Z,101996.37
2018-07-06T04:51:09.431Z,102006.14
2018-07-06T04:54:15.454Z,102007.05
2018-07-06T04:57:21.738Z,102012.24
2018-07-06T05:00:27.182Z,102012.84
2018-07-06T05:03:33.164Z,102021.88
2018-07-06T05:06:39.007Z,102017.72
2018-07-06T05:09:44.781Z,102021.36
2018-07-06T05:12:50.843Z,102015.20
2018-07-06T05:15:58.363Z,102013.66
2018-07-06T05:19:04.585Z,102014.22
2018-07-06T05:22:12.172Z,102021.23
2018-07-06T05:25:20.011Z,102017.45
2018-07-06T05:28:27.564Z,102016.33
2018-07-06T05:31:34.485Z,102026.87
2018-07-06T05:34:42.575Z,102027.06
2018-07-06T05:37:49.111Z,102028.20
2018-07-06T05:40:55.094Z,102034.20
2018-07-06T05:44:00.673Z,102044.56
2018-07-06T05:47:06.734Z,102048.98
2018-07-06T05:50:13.645Z,102054.56
2018-07-06T05:53:21.516Z,102058.42
2018-07-06T05:56:27.791Z,102063.02
2018-07-06T05:59:35.272Z,102072.50
2018-07-06T06:02:42.774Z,102073.66
2018-07-06T06:05:49.990Z,102069.13
2018-07-06T06:08:19.915Z,102079.84
2018-07-06T06:10:52.833Z,102079.31
2018-07-06T06:13:26.111Z,102083.00
2018-07-06T06:15:59.137Z,102092.52
2018-07-06T06:18:32.152Z,102087.84
2018-07-06T06:21:05.110Z,102092.69
2018-07-06T06:23:36.504Z,102092.69
2018-07-06T06:26:07.108Z,102099.08
2018-07-06T06:28:38.692Z,102101.31
2018-07-06T06:31:10.232Z,102095.84
2018-07-06T06:33:43.305Z,102100.08
2018-07-06T06:36:14.724Z,102101.48
2018-07-06T06:38:45.687Z,102102.56
2018-07-06T06:41:16.059Z,102108.66
2018-07-06T06:43:46.559Z,102104.63
2018-07-06T06:46:18.199Z,102104.34
2018-07-06T06:48:49.893Z,102102.44
2018-07-06T06:51:19.335Z,102107.98
2018-07-06T06:53:52.361Z,102105.63
2018-07-06T06:56:25.235Z,102108.05
2018-07-06T06:58:56.711Z,102104.08
2018-07-06T07:01:28.606Z,102104.42
2018-07-06T07:03:58.539Z,102108.45
2018-07-06T07:06:31.568Z,102108.66
2018-07-06T07:09:05.133Z,102112.33
2018-07-06T07:11:37.313Z,102109.48
2018-07-06T07:14:08.256Z,102113.30
2018-07-06T07:16:39.670Z,102104.41
2018-07-06T07:19:12.802Z,102103.94
2018-07-06T07:21:42.820Z,102111.20
2018-07-06T07:24:17.797Z,102110.12
2018-07-06T07:26:49.216Z,102108.88
2018-07-06T07:29:21.381Z,102114.57
2018-07-06T07:31:52.136Z,102118.36
2018-07-06T07:34:23.732Z,102122.34
2018-07-06T07:36:58.444Z,102118.91
2018-07-06T07:39:30.027Z,102123.36
2018-07-06T07:41:59.660Z,102127.36
2018-07-06T07:44:31.355Z,102120.22
2018-07-06T07:47:02.846Z,102123.05
2018-07-06T07:49:35.027Z,102120.66
2018-07-06T07:52:42.370Z,102113.82
2018-07-06T07:55:12.342Z,102116.17
2018-07-06T07:57:42.181Z,102126.82
2018-07-06T08:00:14.420Z,102126.44
2018-07-06T08:02:46.102Z,102124.22
2018-07-06T08:05:17.682Z,102127.30
2018-07-06T08:07:50.903Z,102130.61
2018-07-06T08:10:20.992Z,102134.09
2018-07-06T08:12:51.381Z,102128.27
2018-07-06T08:15:21.597Z,102135.33
2018-07-06T08:17:53.718Z,102131.08
2018-07-06T08:20:27.901Z,102131.78
2018-07-06T08:22:59.394Z,102138.41
2018-07-06T08:25:34.938Z,102126.25
2018-07-06T08:28:06.956Z,102119.53
2018-07-06T08:30:39.237Z,102122.35
2018-07-06T08:33:14.557Z,102131.44
2018-07-06T08:36:27.427Z,102126.66
2018-07-06T08:39:00.513Z,102131.83
2018-07-06T08:41:36.879Z,102138.94
2018-07-06T08:44:09.559Z,102141.24
2018-07-06T08:46:41.841Z,102140.02
2018-07-06T08:49:14.585Z,102147.36
2018-07-06T08:51:49.749Z,102141.45
2018-07-06T08:54:23.064Z,102149.02
2018-07-06T08:56:58.516Z,102148.27
2018-07-06T08:59:33.562Z,102142.53
2018-07-06T09:02:06.936Z,102148.92
2018-07-06T09:04:40.313Z,102141.56
2018-07-06T09:07:15.161Z,102138.52
2018-07-06T09:09:48.929Z,102145.72
2018-07-06T09:12:23.609Z,102141.78
2018-07-06T09:14:57.057Z,102150.36
2018-07-06T09:17:30.807Z,102151.61
2018-07-06T09:20:01.783Z,102145.02
2018-07-06T09:22:36.590Z,102158.91
2018-07-06T09:25:09.130Z,102154.31
2018-07-06T09:27:41.977Z,102162.08
2018-07-06T09:30:15.981Z,102165.67
2018-07-06T09:32:48.142Z,102166.53
2018-07-06T09:35:21.249Z,102160.46
2018-07-06T09:37:56.159Z,102158.63
2018-07-06T09:40:31.719Z,102156.17
2018-07-06T09:43:05.771Z,102165.42
2018-07-06T09:45:40.001Z,102163.05
2018-07-06T09:48:14.638Z,102171.28
2018-07-06T09:50:46.314Z,102167.77
2018-07-06T09:53:19.575Z,102163.03
2018-07-06T09:55:53.600Z,102163.52
2018-07-06T09:58:26.256Z,102162.13
2018-07-06T10:01:01.516Z,102151.05
2018-07-06T10:03:33.581Z,102156.71
2018-07-06T10:06:05.541Z,102154.34
2018-07-06T10:08:41.186Z,102156.39
2018-07-06T10:11:13.304Z,102156.52
2018-07-06T10:13:49.688Z,102162.12
2018-07-06T10:16:23.781Z,102158.91
2018-07-06T10:18:56.767Z,102159.02
2018-07-06T10:21:31.880Z,102153.41
2018-07-06T10:24:03.249Z,102158.42
2018-07-06T10:26:38.181Z,102161.30
2018-07-06T10:29:46.269Z,102161.44
2018-07-06T10:32:26.393Z,102157.73
2018-07-06T10:34:57.622Z,102161.58
2018-07-06T10:37:30.908Z,102162.33
2018-07-06T10:40:02.992Z,102152.66
2018-07-06T10:42:34.662Z,102156.44
2018-07-06T10:45:07.515Z,102164.50
2018-07-06T10:47:38.952Z,102166.98
2018-07-06T10:50:09.585Z,102162.17
2018-07-06T10:52:40.269Z,102166.16
2018-07-06T10:55:11.824Z,102166.67
2018-07-06T10:57:46.630Z,102163.91
2018-07-06T11:00:19.464Z,102163.41
2018-07-06T11:02:49.373Z,102165.13
2018-07-06T11:05:22.378Z,102173.42
2018-07-06T11:07:51.832Z,102165.95
2018-07-06T11:10:23.969Z,102168.63
2018-07-06T11:12:55.445Z,102174.98
2018-07-06T11:15:26.971Z,102172.19
2018-07-06T11:17:58.281Z,102172.39
2018-07-06T11:20:31.290Z,102169.55
2018-07-06T11:23:04.634Z,102166.89
2018-07-06T11:25:37.989Z,102166.55
2018-07-06T11:28:08.350Z,102167.12
2018-07-06T11:30:42.758Z,102166.03
2018-07-06T11:33:12.632Z,102164.78
2018-07-06T11:35:44.049Z,102168.53
2018-07-06T11:38:15.769Z,102169.39
2018-07-06T11:40:48.670Z,102170.53
2018-07-06T11:43:21.584Z,102168.11
2018-07-06T11:45:52.993Z,102167.25
2018-07-06T11:48:25.767Z,102166.70
2018-07-06T11:50:59.568Z,102167.31
2018-07-06T11:53:30.105Z,102169.98
2018-07-06T11:56:00.174Z,102168.66
2018-07-06T11:58:32.901Z,102159.23
2018-07-06T12:01:04.264Z,102168.30
2018-07-06T12:03:35.883Z,102163.50
2018-07-06T12:06:10.246Z,102163.73
2018-07-06T12:08:41.672Z,102163.34
2018-07-06T12:11:13.482Z,102156.06
2018-07-06T12:13:44.871Z,102162.09
2018-07-06T12:16:14.766Z,102156.10
2018-07-06T12:18:46.200Z,102148.56
2018-07-06T12:21:17.603Z,102154.95
2018-07-06T12:23:50.470Z,102162.31
2018-07-06T12:26:23.267Z,102167.28
2018-07-06T12:28:57.564Z,102157.97
2018-07-06T12:31:28.918Z,102161.84
2018-07-06T12:34:01.706Z,102159.86
2018-07-06T12:36:37.346Z,102155.98
2018-07-06T12:39:10.839Z,102159.81
2018-07-06T12:41:42.327Z,102159.84
2018-07-06T12:44:12.277Z,102150.36
2018-07-06T12:46:45.267Z,102153.45
2018-07-06T12:49:18.139Z,102151.90
2018-07-06T12:51:50.967Z,102148.08
2018-07-06T12:54:22.525Z,102148.95
2018-07-06T12:56:53.879Z,102148.97
2018-07-06T12:59:23.860Z,102148.36
2018-07-06T13:01:56.789Z,102147.31
2018-07-06T13:04:29.843Z,102153.72
2018-07-06T13:07:02.776Z,102157.53
2018-07-06T13:09:35.967Z,102153.64
2018-07-06T13:12:07.455Z,102157.20
2018-07-06T13:14:40.324Z,102157.86
2018-07-06T13:17:11.769Z,102162.52
2018-07-06T13:19:43.281Z,102158.52
2018-07-06T13:22:16.428Z,102160.10
2018-07-06T13:24:49.427Z,102163.33
2018-07-06T13:27:22.659Z,102155.98
2018-07-06T13:29:55.215Z,102152.28
2018-07-06T13:32:28.480Z,102157.13
2018-07-06T13:35:01.459Z,102156.13
2018-07-06T13:37:35.632Z,102156.17
2018-07-06T13:40:05.608Z,102148.86
2018-07-06T13:42:38.626Z,102156.63
2018-07-06T13:45:12.962Z,102146.03
2018-07-06T13:47:45.797Z,102155.39
2018-07-06T13:50:18.719Z,102154.78
2018-07-06T13:52:51.706Z,102154.47
2018-07-06T13:55:24.764Z,102155.49
2018-07-06T13:57:54.665Z,102151.45
2018-07-06T14:00:26.107Z,102144.66
2018-07-06T14:02:59.458Z,102156.28
2018-07-06T14:05:32.242Z,102152.64
2018-07-06T14:08:06.610Z,102156.03
2018-07-06T14:10:41.809Z,102152.60
2018-07-06T14:13:13.492Z,102161.97
2018-07-06T14:15:45.785Z,102159.55
2018-07-06T14:18:17.854Z,102154.48
2018-07-06T14:20:47.691Z,102157.34
2018-07-06T14:23:19.123Z,102159.39
2018-07-06T14:25:53.573Z,102159.41
2018-07-06T14:28:25.726Z,102166.23
2018-07-06T14:30:57.059Z,102167.17
2018-07-06T14:33:30.294Z,102168.30
2018-07-06T14:36:01.740Z,102168.09
2018-07-06T14:38:34.787Z,102168.53
2018-07-06T14:41:06.322Z,102167.44
2018-07-06T14:43:39.056Z,102163.34
2018-07-06T14:46:10.548Z,102159.83
2018-07-06T14:48:42.434Z,102174.48
2018-07-06T14:51:15.604Z,102172.50
2018-07-06T14:53:50.196Z,102168.56
2018-07-06T14:56:23.150Z,102172.64
2018-07-06T14:59:00.025Z,102179.00
2018-07-06T15:01:32.801Z,102173.40
2018-07-06T15:04:07.542Z,102179.25
2018-07-06T15:06:38.733Z,102181.20
2018-07-06T15:09:13.269Z,102180.02
2018-07-06T15:11:44.682Z,102172.50
2018-07-06T15:14:17.678Z,102176.27
2018-07-06T15:16:49.241Z,102182.25
2018-07-06T15:19:22.058Z,102181.41
2018-07-06T15:21:53.415Z,102188.36
2018-07-06T15:24:23.970Z,102186.41
2018-07-06T15:26:58.393Z,102184.34
2018-07-06T15:29:31.318Z,102186.41
2018-07-06T15:32:04.241Z,102182.84
2018-07-06T15:34:37.087Z,102184.77
2018-07-06T15:37:08.707Z,102179.16
2018-07-06T15:39:43.075Z,102182.85
2018-07-06T15:42:12.520Z,102183.55
2018-07-06T15:44:42.541Z,102180.58
2018-07-06T15:47:12.613Z,102185.79
2018-07-06T15:49:43.692Z,102185.58
2018-07-06T15:52:18.124Z,102188.81
2018-07-06T15:54:51.538Z,102185.08
2018-07-06T15:57:23.160Z,102194.74
2018-07-06T15:59:55.829Z,102190.07
2018-07-06T16:02:25.794Z,102190.67
2018-07-06T16:04:58.661Z,102196.52
2018-07-06T16:07:33.129Z,102199.22
2018-07-06T16:10:03.155Z,102188.36
2018-07-06T16:12:34.505Z,102184.92
2018-07-06T16:15:06.579Z,102184.12
2018-07-06T16:17:38.294Z,102184.43
2018-07-06T16:20:10.512Z,102185.30
2018-07-06T16:22:43.251Z,102181.70
2018-07-06T16:25:17.624Z,102186.86
2018-07-06T16:27:49.019Z,102186.02
2018-07-06T16:30:21.839Z,102192.00
2018-07-06T16:32:55.442Z,102184.59
2018-07-06T16:35:30.091Z,102186.27
2018-07-06T16:38:03.032Z,102189.78
2018-07-06T16:40:33.421Z,102185.23
2018-07-06T16:43:06.395Z,102184.76
2018-07-06T16:45:37.891Z,102179.18
2018-07-06T16:48:09.469Z,102185.19
2018-07-06T16:50:39.358Z,102172.13
2018-07-06T16:53:10.834Z,102179.18
2018-07-06T16:55:43.663Z,102177.48
2018-07-06T16:58:16.728Z,102178.41
2018-07-06T17:00:48.172Z,102183.33
2018-07-06T17:03:21.652Z,102178.13
2018-07-06T17:05:53.063Z,102183.97
2018-07-06T17:08:23.928Z,102185.48
2018-07-06T17:10:55.642Z,102181.22
2018-07-06T17:13:27.154Z,102181.64
2018-07-06T17:16:00.076Z,102174.56
2018-07-06T17:18:33.151Z,102180.38
2018-07-06T17:21:04.568Z,102182.52
2018-07-06T17:23:39.215Z,102173.00
2018-07-06T17:26:10.549Z,102172.11
2018-07-06T17:28:43.557Z,102170.72
2018-07-06T17:31:15.922Z,102169.41
2018-07-06T17:33:48.455Z,102165.46
2018-07-06T17:36:23.067Z,102165.75
2018-07-06T17:38:53.211Z,102163.41
2018-07-06T17:41:24.749Z,102163.19
2018-07-06T17:43:56.138Z,102164.92
2018-07-06T17:46:30.478Z,102170.20
2018-07-06T17:49:02.013Z,102172.75
2018-07-06T17:51:32.358Z,102178.77
2018-07-06T17:54:03.824Z,102177.98
2018-07-06T17:56:36.800Z,102183.05
2018-07-06T17:59:09.693Z,102175.98
2018-07-06T18:01:41.130Z,102182.25
2018-07-06T18:04:12.660Z,102180.72
2018-07-06T18:06:44.039Z,102182.93
2018-07-06T18:09:14.134Z,102186.05
2018-07-06T18:11:48.149Z,102183.41
2018-07-06T18:14:21.166Z,102188.27
2018-07-06T18:16:52.985Z,102187.17
2018-07-06T18:19:24.576Z,102182.19
2018-07-06T18:21:57.367Z,102185.73
2018-07-06T18:24:30.657Z,102184.94
2018-07-06T18:27:02.571Z,102183.97
2018-07-06T18:29:35.079Z,102188.33
2018-07-06T18:32:08.000Z,102188.13
2018-07-06T18:34:38.373Z,102192.03
2018-07-06T18:37:11.374Z,102192.08
2018-07-06T18:39:43.211Z,102192.75
2018-07-06T18:42:16.311Z,102194.33
2018-07-06T18:44:46.429Z,102194.81
2018-07-06T18:47:19.735Z,102194.52
2018-07-06T18:49:51.353Z,102198.67
2018-07-06T18:52:22.765Z,102194.12
2018-07-06T18:54:55.691Z,102198.58
2018-07-06T18:57:28.966Z,102197.66
2018-07-06T19:00:03.387Z,102199.32
2018-07-06T19:02:38.009Z,102201.09
2018-07-06T19:05:10.886Z,102195.74
2018-07-06T19:07:42.246Z,102192.03
2018-07-06T19:10:13.708Z,102193.23
2018-07-06T19:12:47.115Z,102198.41
2018-07-06T19:15:20.083Z,102199.30
2018-07-06T19:17:53.631Z,102201.32
2018-07-06T19:20:26.561Z,102207.16
2018-07-06T19:22:59.472Z,102213.19
2018-07-06T19:25:29.476Z,102211.16
2018-07-06T19:28:02.565Z,102215.01
2018-07-06T19:30:34.007Z,102220.61
2018-07-06T19:33:08.336Z,102213.98
2018-07-06T19:35:41.296Z,102213.66
2018-07-06T19:38:14.285Z,102216.91
2018-07-06T19:40:47.166Z,102218.14
2018-07-06T19:43:18.622Z,102221.17
2018-07-06T19:45:51.424Z,102220.47
2018-07-06T19:48:23.631Z,102230.73
2018-07-06T19:50:56.614Z,102226.47
2018-07-06T19:53:29.639Z,102222.94
2018-07-06T19:55:59.656Z,102233.36
2018-07-06T19:58:34.646Z,102229.80
2018-07-06T20:01:07.159Z,102239.72
2018-07-06T20:03:38.708Z,102243.47
2018-07-06T20:06:13.149Z,102245.14
2018-07-06T20:08:46.234Z,102246.16
2018-07-06T20:11:16.386Z,102256.53
2018-07-06T20:13:46.405Z,102262.22
2018-07-06T20:16:19.308Z,102271.89
2018-07-06T20:18:49.255Z,102270.03
2018-07-06T20:21:24.095Z,102277.86
2018-07-06T20:23:54.529Z,102279.38
2018-07-06T20:26:27.498Z,102289.16
2018-07-06T20:28:59.542Z,102289.54
2018-07-06T20:31:30.962Z,102290.68
2018-07-06T20:34:00.888Z,102288.88
2018-07-06T20:36:32.446Z,102299.88
2018-07-06T20:39:03.962Z,102301.47
2018-07-06T20:41:36.978Z,102304.17
2018-07-06T20:44:07.893Z,102306.04
2018-07-06T20:46:42.497Z,102298.97
2018-07-06T20:49:13.899Z,102312.39
2018-07-06T20:51:46.898Z,102308.81
2018-07-06T20:54:19.839Z,102312.45
2018-07-06T20:56:51.377Z,102311.34
2018-07-06T20:59:22.890Z,102317.41
2018-07-06T21:01:55.901Z,102322.23
2018-07-06T21:04:30.436Z,102322.35
2018-07-06T21:07:01.887Z,102324.44
2018-07-06T21:09:34.846Z,102324.16
2018-07-06T21:12:08.314Z,102323.77
2018-07-06T21:14:41.773Z,102325.23
2018-07-06T21:17:13.237Z,102323.39
2018-07-06T21:19:45.122Z,102326.00
2018-07-06T21:22:16.657Z,102326.24
2018-07-06T21:24:49.488Z,102327.26
2018-07-06T21:27:22.703Z,102334.60
2018-07-06T21:29:55.945Z,102333.97
2018-07-06T21:32:29.944Z,102333.70
2018-07-06T21:35:00.049Z,102334.34
2018-07-06T21:37:30.161Z,102335.27
2018-07-06T21:40:01.612Z,102333.09
2018-07-06T21:42:36.267Z,102342.30
2018-07-06T21:45:10.871Z,102342.05
2018-07-06T21:47:40.794Z,102341.78
2018-07-06T21:50:13.615Z,102338.80
2018-07-06T21:52:45.337Z,102341.85
2018-07-06T21:55:17.054Z,102340.05
2018-07-06T21:57:50.061Z,102334.63
2018-07-06T22:00:41.467Z,102338.23
2018-07-06T22:03:15.006Z,102339.08
2018-07-06T22:05:47.972Z,102334.84
2018-07-06T22:08:22.269Z,102336.45
2018-07-06T22:10:54.897Z,102336.97
2018-07-06T22:13:27.889Z,102334.41
2018-07-06T22:15:58.358Z,102340.17
2018-07-06T22:18:31.444Z,102342.75
2018-07-06T22:21:04.500Z,102345.65
2018-07-06T22:23:37.117Z,102350.25
2018-07-06T22:26:06.104Z,102347.44
2018-07-06T22:28:37.887Z,102349.36
2018-07-06T22:31:10.391Z,102348.34
2018-07-06T22:33:42.127Z,102352.73
2018-07-06T22:36:16.785Z,102354.28
2018-07-06T22:38:49.837Z,102362.04
2018-07-06T22:41:21.312Z,102362.09
2018-07-06T22:43:54.590Z,102359.72
2018-07-06T22:46:27.805Z,102363.80
2018-07-06T22:48:59.358Z,102360.00
2018-07-06T22:51:32.360Z,102368.94
2018-07-06T22:54:04.117Z,102367.53
2018-07-06T22:56:35.814Z,102363.44
2018-07-06T22:59:10.439Z,102365.75
2018-07-06T23:01:41.984Z,102361.23
2018-07-06T23:04:13.631Z,102357.66
2018-07-06T23:06:47.082Z,102361.25
2018-07-06T23:09:21.556Z,102359.78
2018-07-06T23:11:54.520Z,102359.48
2018-07-06T23:14:27.703Z,102356.13
2018-07-06T23:17:00.642Z,102361.05
2018-07-06T23:19:33.438Z,102357.39
2018-07-06T23:22:08.205Z,102362.88
2018-07-06T23:24:41.191Z,102362.54
2018-07-06T23:27:13.587Z,102360.12
2018-07-06T23:29:47.778Z,102362.94
2018-07-06T23:32:20.965Z,102358.50
2018-07-06T23:34:53.036Z,102360.20
2018-07-06T23:37:26.105Z,102365.55
2018-07-06T23:39:58.934Z,102367.94
2018-07-06T23:42:28.905Z,102369.61
2018-07-06T23:45:01.966Z,102364.43
2018-07-06T23:47:31.934Z,102364.64
2018-07-06T23:50:03.575Z,102365.19
2018-07-06T23:52:34.980Z,102366.13
2018-07-06T23:55:06.896Z,102371.73
2018-07-06T23:57:40.039Z,102374.25
